createdAt,value
2018-01-23T00:01:07.360Z,21.87
2018-01-23T00:03:34.958Z,21.42
2018-01-23T00:06:02.559Z,20.62
2018-01-23T00:08:30.156Z,21.45
2018-01-23T00:10:57.756Z,22.30
2018-01-23T00:13:25.352Z,21.70
2018-01-23T00:15:52.947Z,21.33
2018-01-23T00:18:20.539Z,22.27
2018-01-23T00:20:48.140Z,21.70
2018-01-23T00:23:15.735Z,19.92
2018-01-23T00:25:43.337Z,21.90
2018-01-23T00:28:10.943Z,21.85
2018-01-23T00:30:38.555Z,21.83
2018-01-23T00:33:06.147Z,21.35
2018-01-23T00:35:33.759Z,20.40
2018-01-23T00:38:01.356Z,22.35
2018-01-23T00:40:28.991Z,21.23
2018-01-23T00:42:56.587Z,22.90
2018-01-23T00:45:24.203Z,21.48
2018-01-23T00:47:51.811Z,21.50
2018-01-23T00:50:19.416Z,21.77
2018-01-23T00:52:47.014Z,21.73
2018-01-23T00:55:14.620Z,20.73
2018-01-23T00:57:42.216Z,21.12
2018-01-23T01:00:09.851Z,20.70
2018-01-23T01:02:37.452Z,20.60
2018-01-23T01:05:05.048Z,22.70
2018-01-23T01:07:32.644Z,21.83
2018-01-23T01:10:00.273Z,20.50
2018-01-23T01:12:27.884Z,20.62
2018-01-23T01:14:55.483Z,21.42
2018-01-23T01:17:23.075Z,22.20
2018-01-23T01:19:51.444Z,22.17
2018-01-23T01:22:19.041Z,20.83
2018-01-23T01:24:46.638Z,19.33
2018-01-23T01:27:15.360Z,20.10
2018-01-23T01:29:43.004Z,20.80
2018-01-23T01:32:10.599Z,21.80
2018-01-23T01:34:38.196Z,22.48
2018-01-23T01:37:05.787Z,21.10
2018-01-23T01:39:33.427Z,20.10
2018-01-23T01:42:01.028Z,21.02
2018-01-23T01:44:29.372Z,21.50
2018-01-23T01:46:56.967Z,21.52
2018-01-23T01:49:24.568Z,21.83
2018-01-23T01:51:52.203Z,21.95
2018-01-23T01:54:19.812Z,21.62
2018-01-23T01:56:47.406Z,22.27
2018-01-23T01:59:15.014Z,22.50
2018-01-23T02:01:42.610Z,22.73
2018-01-23T02:04:10.220Z,21.42
2018-01-23T02:06:37.877Z,23.77
2018-01-23T02:09:05.524Z,23.20
2018-01-23T02:11:33.123Z,23.23
2018-01-23T02:14:01.502Z,22.27
2018-01-23T02:16:29.867Z,21.85
2018-01-23T02:18:57.459Z,22.33
2018-01-23T02:21:25.066Z,23.65
2018-01-23T02:23:52.654Z,23.05
2018-01-23T02:26:21.104Z,22.48
2018-01-23T02:28:49.732Z,21.48
2018-01-23T02:31:17.339Z,22.85
2018-01-23T02:33:45.050Z,23.45
2018-01-23T02:36:13.004Z,23.30
2018-01-23T02:38:40.732Z,20.27
2018-01-23T02:41:08.423Z,19.83
2018-01-23T02:43:36.098Z,22.15
2018-01-23T02:46:03.825Z,21.40
2018-01-23T02:48:31.434Z,21.50
2018-01-23T02:50:59.082Z,22.27
2018-01-23T02:53:26.680Z,21.25
2018-01-23T02:55:56.523Z,20.75
2018-01-23T02:58:24.332Z,20.08
2018-01-23T03:00:56.111Z,21.87
2018-01-23T03:03:23.887Z,20.80
2018-01-23T03:05:51.580Z,20.73
2018-01-23T03:08:19.191Z,22.02
2018-01-23T03:10:46.807Z,22.60
2018-01-23T03:13:14.474Z,22.08
2018-01-23T03:15:42.103Z,21.27
2018-01-23T03:18:09.698Z,21.83
2018-01-23T03:20:37.345Z,21.87
2018-01-23T03:23:04.956Z,22.45
2018-01-23T03:25:32.549Z,21.42
2018-01-23T03:28:00.171Z,22.27
2018-01-23T03:30:28.032Z,23.50
2018-01-23T03:32:55.643Z,22.08
2018-01-23T03:35:23.255Z,23.00
2018-01-23T03:37:50.895Z,20.25
2018-01-23T03:40:18.651Z,20.90
2018-01-23T03:42:46.250Z,18.50
2018-01-23T03:45:13.931Z,21.30
2018-01-23T03:47:41.524Z,21.08
2018-01-23T03:50:09.951Z,19.80
2018-01-23T03:52:37.631Z,23.12
2018-01-23T03:55:05.291Z,21.55
2018-01-23T03:57:32.898Z,19.95
2018-01-23T04:00:01.342Z,22.23
2018-01-23T04:02:29.081Z,21.60
2018-01-23T04:04:56.731Z,21.15
2018-01-23T04:07:24.366Z,19.27
2018-01-23T04:09:52.003Z,20.30
2018-01-23T04:12:19.659Z,20.33
2018-01-23T04:17:36.929Z,16.75
2018-01-23T04:20:04.949Z,15.52
2018-01-23T04:22:32.598Z,16.35
2018-01-23T04:25:00.321Z,16.33
2018-01-23T04:27:28.138Z,16.45
2018-01-23T04:29:56.778Z,16.75
2018-01-23T04:32:24.630Z,18.40
2018-01-23T04:34:52.506Z,18.92
2018-01-23T04:37:20.890Z,17.40
2018-01-23T04:39:56.654Z,15.77
2018-01-23T04:42:26.007Z,15.93
2018-01-23T04:44:53.677Z,15.25
2018-01-23T04:47:21.457Z,15.02
2018-01-23T04:49:55.469Z,13.95
2018-01-23T04:52:23.322Z,16.27
2018-01-23T04:54:51.045Z,17.40
2018-01-23T04:57:18.963Z,18.60
2018-01-23T05:02:26.028Z,17.48
2018-01-23T05:04:53.696Z,17.23
2018-01-23T05:07:21.455Z,18.30
2018-01-23T05:09:49.109Z,16.85
2018-01-23T05:12:20.786Z,16.00
2018-01-23T05:14:50.221Z,16.42
2018-01-23T05:17:17.867Z,18.25
2018-01-23T05:19:45.519Z,18.67
2018-01-23T05:22:13.163Z,19.67
2018-01-23T05:24:40.793Z,15.40
2018-01-23T05:27:09.185Z,16.25
2018-01-23T05:29:36.988Z,16.08
2018-01-23T05:32:04.602Z,17.80
2018-01-23T05:34:32.479Z,17.08
2018-01-23T05:37:00.564Z,16.85
2018-01-23T05:39:28.719Z,16.42
2018-01-23T05:41:56.484Z,15.45
2018-01-23T05:44:24.128Z,18.45
2018-01-23T05:46:52.715Z,16.50
2018-01-23T05:49:20.427Z,16.50
2018-01-23T05:51:48.133Z,16.42
2018-01-23T05:54:15.814Z,16.73
2018-01-23T05:56:43.443Z,14.52
2018-01-23T05:59:11.075Z,15.18
2018-01-23T06:01:38.901Z,12.43
2018-01-23T06:04:06.550Z,15.90
2018-01-23T06:06:34.354Z,13.10
2018-01-23T06:09:02.014Z,15.00
2018-01-23T06:11:29.691Z,14.18
2018-01-23T06:13:57.346Z,12.55
2018-01-23T06:16:25.043Z,11.88
2018-01-23T06:18:58.848Z,12.82
2018-01-23T06:21:26.715Z,15.10
2018-01-23T06:23:54.376Z,14.65
2018-01-23T06:26:22.028Z,14.50
2018-01-23T06:28:49.655Z,14.73
2018-01-23T06:31:17.284Z,12.80
2018-01-23T06:33:44.945Z,14.27
2018-01-23T06:36:12.570Z,13.13
2018-01-23T06:38:40.345Z,11.98
2018-01-23T06:41:07.995Z,11.27
2018-01-23T06:43:35.680Z,10.95
2018-01-23T06:46:03.318Z,10.38
2018-01-23T06:48:30.997Z,10.20
2018-01-23T06:50:58.636Z,11.30
2018-01-23T06:53:26.271Z,11.30
2018-01-23T06:55:53.963Z,11.70
2018-01-23T06:58:21.599Z,12.57
2018-01-23T07:00:49.214Z,13.77
2018-01-23T07:03:16.867Z,11.57
2018-01-23T07:05:44.487Z,11.55
2018-01-23T07:08:12.163Z,10.90
2018-01-23T07:10:39.785Z,9.68
2018-01-23T07:13:07.422Z,10.05
2018-01-23T07:15:35.052Z,10.10
2018-01-23T07:18:02.697Z,10.90
2018-01-23T07:20:30.335Z,11.25
2018-01-23T07:22:57.962Z,10.25
2018-01-23T07:25:25.578Z,11.20
2018-01-23T07:27:53.206Z,11.68
2018-01-23T07:30:20.829Z,11.75
2018-01-23T07:32:48.464Z,9.57
2018-01-23T07:35:16.083Z,10.60
2018-01-23T07:37:43.703Z,9.50
2018-01-23T07:40:11.330Z,9.57
2018-01-23T07:42:38.951Z,9.20
2018-01-23T07:45:06.579Z,8.45
2018-01-23T07:47:34.202Z,8.82
2018-01-23T07:50:01.827Z,8.40
2018-01-23T07:52:29.462Z,7.50
2018-01-23T07:54:57.123Z,7.35
2018-01-23T07:57:24.753Z,7.30
2018-01-23T07:59:52.399Z,7.47
2018-01-23T08:02:20.035Z,6.85
2018-01-23T08:04:47.720Z,7.05
2018-01-23T08:07:15.350Z,7.32
2018-01-23T08:09:42.987Z,7.28
2018-01-23T08:12:10.640Z,6.78
2018-01-23T08:14:38.314Z,6.05
2018-01-23T08:17:05.935Z,6.53
2018-01-23T08:19:44.725Z,6.18
2018-01-23T08:22:12.390Z,6.20
2018-01-23T08:24:40.036Z,7.30
2018-01-23T08:27:07.682Z,5.85
2018-01-23T08:29:35.313Z,5.80
2018-01-23T08:32:03.780Z,6.05
2018-01-23T08:34:32.279Z,5.78
2018-01-23T08:36:59.916Z,8.10
2018-01-23T08:39:27.550Z,16.90
2018-01-23T08:41:55.187Z,17.50
2018-01-23T08:44:22.832Z,11.57
2018-01-23T08:46:51.251Z,8.13
2018-01-23T08:49:18.897Z,7.60
2018-01-23T08:51:46.532Z,6.22
2018-01-23T08:54:14.167Z,6.40
2018-01-23T08:56:41.834Z,6.25
2018-01-23T08:59:09.462Z,6.78
2018-01-23T09:01:37.093Z,5.53
2018-01-23T09:04:04.726Z,5.37
2018-01-23T09:06:32.360Z,5.78
2018-01-23T09:08:59.991Z,6.10
2018-01-23T09:11:27.630Z,5.75
2018-01-23T09:13:55.282Z,6.70
2018-01-23T09:16:22.912Z,5.68
2018-01-23T09:18:51.306Z,6.25
2018-01-23T09:21:18.972Z,5.72
2018-01-23T09:23:47.377Z,6.22
2018-01-23T09:26:14.999Z,5.78
2018-01-23T09:28:42.694Z,5.57
2018-01-23T09:31:10.354Z,5.47
2018-01-23T09:33:38.739Z,6.25
2018-01-23T09:36:07.130Z,5.25
2018-01-23T09:38:34.783Z,5.30
2018-01-23T09:41:03.221Z,5.30
2018-01-23T09:43:30.846Z,5.70
2018-01-23T09:46:00.451Z,5.60
2018-01-23T09:48:28.080Z,5.53
2018-01-23T09:50:55.709Z,5.40
2018-01-23T09:53:23.338Z,4.85
2018-01-23T09:55:53.007Z,5.35
2018-01-23T09:58:21.666Z,4.65
2018-01-23T10:00:49.286Z,5.12
2018-01-23T10:03:16.894Z,5.25
2018-01-23T10:05:44.526Z,6.25
2018-01-23T10:08:12.941Z,5.40
2018-01-23T10:10:40.598Z,6.68
2018-01-23T10:13:08.486Z,6.22
2018-01-23T10:15:36.166Z,5.60
2018-01-23T10:18:03.825Z,6.18
2018-01-23T10:20:31.454Z,5.12
2018-01-23T10:22:59.858Z,5.20
2018-01-23T10:25:28.434Z,5.80
2018-01-23T10:27:56.061Z,5.75
2018-01-23T10:30:23.702Z,8.60
2018-01-23T10:32:51.334Z,14.30
2018-01-23T10:35:19.021Z,13.55
2018-01-23T10:37:46.662Z,13.30
2018-01-23T10:40:14.310Z,9.98
2018-01-23T10:42:41.938Z,10.00
2018-01-23T10:45:09.565Z,10.23
2018-01-23T10:47:37.179Z,9.20
2018-01-23T10:50:04.806Z,5.65
2018-01-23T10:52:32.611Z,5.87
2018-01-23T10:55:00.230Z,6.32
2018-01-23T10:57:27.838Z,5.57
2018-01-23T10:59:55.458Z,6.32
2018-01-23T11:02:24.920Z,5.65
2018-01-23T11:04:52.549Z,5.70
2018-01-23T11:07:20.174Z,6.05
2018-01-23T11:09:47.786Z,6.05
2018-01-23T11:12:15.406Z,7.03
2018-01-23T11:14:43.018Z,7.85
2018-01-23T11:17:10.638Z,7.45
2018-01-23T11:19:38.258Z,8.15
2018-01-23T11:22:05.882Z,7.95
2018-01-23T11:24:34.254Z,7.85
2018-01-23T11:27:02.649Z,8.40
2018-01-23T11:29:31.034Z,8.88
2018-01-23T11:31:59.414Z,9.40
2018-01-23T11:34:27.799Z,10.15
2018-01-23T11:36:56.178Z,8.52
2018-01-23T11:39:24.551Z,9.60
2018-01-23T11:41:52.953Z,10.20
2018-01-23T11:44:21.387Z,10.05
2018-01-23T11:46:49.002Z,9.20
2018-01-23T11:49:17.377Z,9.55
2018-01-23T11:51:47.810Z,9.48
2018-01-23T11:54:16.185Z,9.52
2018-01-23T11:56:44.556Z,10.57
2018-01-23T11:59:12.178Z,9.45
2018-01-23T12:01:39.794Z,9.48
2018-01-23T12:04:08.246Z,8.32
2018-01-23T12:06:36.004Z,9.70
2018-01-23T12:09:03.782Z,8.70
2018-01-23T12:11:31.511Z,10.35
2018-01-23T12:13:59.174Z,9.48
2018-01-23T12:16:26.823Z,9.50
2018-01-23T12:18:55.236Z,9.65
2018-01-23T12:21:22.863Z,10.32
2018-01-23T12:23:51.242Z,9.90
2018-01-23T12:26:18.890Z,10.23
2018-01-23T12:28:46.551Z,11.35
2018-01-23T12:31:14.225Z,11.10
2018-01-23T12:33:41.839Z,11.27
2018-01-23T12:36:09.519Z,12.85
2018-01-23T12:38:37.153Z,13.45
2018-01-23T12:41:05.566Z,13.85
2018-01-23T12:43:40.322Z,14.10
2018-01-23T12:46:07.967Z,13.93
2018-01-23T12:48:35.626Z,16.23
2018-01-23T12:51:03.252Z,15.00
2018-01-23T12:53:30.899Z,14.60
2018-01-23T12:55:58.566Z,14.32
2018-01-23T12:58:26.698Z,13.32
2018-01-23T13:00:54.326Z,14.57
2018-01-23T13:03:21.972Z,13.75
2018-01-23T13:05:52.911Z,13.90
2018-01-23T13:08:20.722Z,13.90
2018-01-23T13:10:48.370Z,13.27
2018-01-23T13:13:16.915Z,13.75
2018-01-23T13:15:44.545Z,12.63
2018-01-23T13:18:12.204Z,14.38
2018-01-23T13:20:40.604Z,14.93
2018-01-23T13:23:08.236Z,15.68
2018-01-23T13:25:36.750Z,17.25
2018-01-23T13:28:04.406Z,19.30
2018-01-23T13:30:32.046Z,23.55
2018-01-23T13:32:59.784Z,20.10
2018-01-23T13:35:50.249Z,17.50
2018-01-23T13:38:17.955Z,19.40
2018-01-23T13:40:45.585Z,18.85
2018-01-23T13:43:13.230Z,19.15
2018-01-23T13:45:41.803Z,19.40
2018-01-23T13:48:10.348Z,20.17
2018-01-23T13:50:38.014Z,20.58
2018-01-23T13:53:05.694Z,20.40
2018-01-23T13:55:34.594Z,21.15
2018-01-23T13:58:02.269Z,20.27
2018-01-23T14:00:30.886Z,19.23
2018-01-23T14:02:59.354Z,22.30
2018-01-23T14:05:27.762Z,21.02
2018-01-23T14:07:55.428Z,20.23
2018-01-23T14:10:23.081Z,20.55
2018-01-23T14:12:51.481Z,21.58
2018-01-23T14:15:19.142Z,22.75
2018-01-23T14:17:47.765Z,22.90
2018-01-23T14:20:15.419Z,22.23
2018-01-23T14:22:43.063Z,23.27
2018-01-23T14:25:10.706Z,23.48
2018-01-23T14:27:46.268Z,23.98
2018-01-23T14:30:14.735Z,23.40
2018-01-23T14:32:43.151Z,23.20
2018-01-23T14:35:11.686Z,23.83
2018-01-23T14:37:39.329Z,23.73
2018-01-23T14:40:06.967Z,24.30
2018-01-23T14:42:34.599Z,21.80
2018-01-23T14:45:02.248Z,24.70
2018-01-23T14:47:29.879Z,22.45
2018-01-23T14:49:58.278Z,21.95
2018-01-23T14:52:25.922Z,21.45
2018-01-23T14:54:53.567Z,20.08
2018-01-23T14:57:22.106Z,22.00
2018-01-23T14:59:49.777Z,22.37
2018-01-23T15:02:17.461Z,20.37
2018-01-23T15:04:45.094Z,18.20
2018-01-23T15:07:12.774Z,18.05
2018-01-23T15:09:40.562Z,17.40
2018-01-23T15:12:08.258Z,25.08
2018-01-23T15:14:35.894Z,18.27
2018-01-23T15:17:03.705Z,18.98
2018-01-23T15:19:31.307Z,17.50
2018-01-23T15:21:58.938Z,20.27
2018-01-23T15:24:26.547Z,17.23
2018-01-23T15:26:54.139Z,18.75
2018-01-23T15:29:23.695Z,19.83
2018-01-23T15:31:51.331Z,17.52
2018-01-23T15:34:19.684Z,18.08
2018-01-23T15:36:47.282Z,17.83
2018-01-23T15:39:14.883Z,17.37
2018-01-23T15:41:42.492Z,15.93
2018-01-23T15:44:10.082Z,16.73
2018-01-23T15:46:37.960Z,19.15
2018-01-23T15:49:05.555Z,21.55
2018-01-23T15:51:35.231Z,21.87
2018-01-23T15:54:02.838Z,23.58
2018-01-23T15:56:30.423Z,22.35
2018-01-23T15:58:58.023Z,19.25
2018-01-23T16:01:25.635Z,19.42
2018-01-23T16:03:56.090Z,20.42
2018-01-23T16:06:23.847Z,21.73
2018-01-23T16:08:51.502Z,21.62
2018-01-23T16:11:19.214Z,22.13
2018-01-23T16:13:46.827Z,21.60
2018-01-23T16:16:14.461Z,21.87
2018-01-23T16:18:51.810Z,34.58
2018-01-23T16:21:19.435Z,43.95
2018-01-23T16:23:47.058Z,25.33
2018-01-23T16:26:15.618Z,23.55
2018-01-23T16:28:43.267Z,22.70
2018-01-23T16:31:10.866Z,21.58
2018-01-23T16:33:39.290Z,22.90
2018-01-23T16:36:07.142Z,24.02
2018-01-23T16:38:34.775Z,23.45
2018-01-23T16:41:02.590Z,20.98
2018-01-23T16:43:30.315Z,23.77
2018-01-23T16:45:58.095Z,24.15
2018-01-23T16:48:27.259Z,25.65
2018-01-23T16:51:03.634Z,25.75
2018-01-23T16:53:31.231Z,26.40
2018-01-23T16:56:04.288Z,25.30
2018-01-23T16:58:38.366Z,26.17
2018-01-23T17:01:07.646Z,28.23
2018-01-23T17:03:38.766Z,26.85
2018-01-23T17:06:06.466Z,27.62
2018-01-23T17:08:34.283Z,28.60
2018-01-23T17:11:07.719Z,29.50
2018-01-23T17:13:36.418Z,29.20
2018-01-23T17:16:04.090Z,26.65
2018-01-23T17:18:31.993Z,29.73
2018-01-23T17:20:59.627Z,27.45
2018-01-23T17:23:29.067Z,28.02
2018-01-23T17:25:56.663Z,28.00
2018-01-23T17:28:26.522Z,29.90
2018-01-23T17:30:54.120Z,28.20
2018-01-23T17:33:21.706Z,28.12
2018-01-23T17:35:50.326Z,28.17
2018-01-23T17:38:18.955Z,33.70
2018-01-23T17:40:47.642Z,37.78
2018-01-23T17:43:30.534Z,77.22
2018-01-23T17:45:58.235Z,57.67
2018-01-23T17:48:25.838Z,42.50
2018-01-23T17:50:54.218Z,33.97
2018-01-23T17:53:22.582Z,35.15
2018-01-23T17:55:53.974Z,29.48
2018-01-23T17:58:21.574Z,28.35
2018-01-23T18:00:49.226Z,26.87
2018-01-23T18:03:16.875Z,25.08
2018-01-23T18:05:44.490Z,26.52
2018-01-23T18:08:12.094Z,28.25
2018-01-23T18:10:40.748Z,26.05
2018-01-23T18:13:08.343Z,29.73
2018-01-23T18:15:36.056Z,28.85
2018-01-23T18:18:03.973Z,31.70
2018-01-23T18:20:32.331Z,32.65
2018-01-23T18:22:59.919Z,33.22
2018-01-23T18:25:28.274Z,40.25
2018-01-23T18:27:59.351Z,28.50
2018-01-23T18:30:41.875Z,43.13
2018-01-23T18:33:09.495Z,28.15
2018-01-23T18:35:37.410Z,30.95
2018-01-23T18:38:05.401Z,30.92
2018-01-23T18:40:33.695Z,27.15
2018-01-23T18:43:04.418Z,26.00
2018-01-23T18:45:35.706Z,26.35
2018-01-23T18:48:03.298Z,28.20
2018-01-23T18:50:44.230Z,28.12
2018-01-23T18:53:11.823Z,28.02
2018-01-23T18:55:39.619Z,28.95
2018-01-23T18:58:07.230Z,27.83
2018-01-23T19:00:35.126Z,26.95
2018-01-23T19:03:02.746Z,24.87
2018-01-23T19:05:43.682Z,25.08
2018-01-23T19:08:12.091Z,26.40
2018-01-23T19:13:23.532Z,24.50
2018-01-23T19:15:51.132Z,24.02
2018-01-23T19:18:18.727Z,22.60
2018-01-23T19:20:46.757Z,20.42
2018-01-23T19:23:14.621Z,19.52
2018-01-23T19:25:42.224Z,20.80
2018-01-23T19:28:09.974Z,20.90
2018-01-23T19:30:38.472Z,21.35
2018-01-23T19:33:06.066Z,20.85
2018-01-23T19:35:33.658Z,21.23
2018-01-23T19:38:01.280Z,20.60
2018-01-23T19:40:28.943Z,19.12
2018-01-23T19:42:56.868Z,19.65
2018-01-23T19:45:24.493Z,20.37
2018-01-23T19:47:52.095Z,20.33
2018-01-23T19:50:20.014Z,22.80
2018-01-23T19:52:47.627Z,23.12
2018-01-23T19:55:15.235Z,24.45
2018-01-23T19:57:42.943Z,20.23
2018-01-23T20:00:10.543Z,20.77
2018-01-23T20:02:38.155Z,22.37
2018-01-23T20:05:05.775Z,20.80
2018-01-23T20:07:33.385Z,19.05
2018-01-23T20:10:00.987Z,20.00
2018-01-23T20:12:28.602Z,21.58
2018-01-23T20:14:56.222Z,20.65
2018-01-23T20:17:23.829Z,22.98
2018-01-23T20:19:51.443Z,21.95
2018-01-23T20:22:19.044Z,21.17
2018-01-23T20:24:47.419Z,22.85
2018-01-23T20:27:15.046Z,23.15
2018-01-23T20:29:42.662Z,24.05
2018-01-23T20:32:11.030Z,23.85
2018-01-23T20:34:38.635Z,24.33
2018-01-23T20:37:06.286Z,23.55
2018-01-23T20:39:33.908Z,26.52
2018-01-23T20:42:01.527Z,25.80
2018-01-23T20:44:29.127Z,25.20
2018-01-23T20:46:56.756Z,24.75
2018-01-23T20:49:24.356Z,24.33
2018-01-23T20:51:51.954Z,22.67
2018-01-23T20:54:20.562Z,23.30
2018-01-23T20:56:48.171Z,23.25
2018-01-23T20:59:15.770Z,24.50
2018-01-23T21:01:44.164Z,25.27
2018-01-23T21:04:13.111Z,22.77
2018-01-23T21:06:40.767Z,23.12
2018-01-23T21:09:08.363Z,24.63
2018-01-23T21:11:35.978Z,22.60
2018-01-23T21:14:03.679Z,23.05
2018-01-23T21:16:31.311Z,24.15
2018-01-23T21:18:58.942Z,22.80
2018-01-23T21:21:26.601Z,21.02
2018-01-23T21:23:54.295Z,23.38
2018-01-23T21:26:22.899Z,22.95
2018-01-23T21:28:50.583Z,24.45
2018-01-23T21:31:18.191Z,25.25
2018-01-23T21:33:46.879Z,21.58
2018-01-23T21:36:14.938Z,23.33
2018-01-23T21:38:42.627Z,24.02
2018-01-23T21:41:13.462Z,24.05
2018-01-23T21:43:41.627Z,24.55
2018-01-23T21:46:09.270Z,24.00
2018-01-23T21:48:39.620Z,22.33
2018-01-23T21:51:07.258Z,21.92
2018-01-23T21:53:35.879Z,23.70
2018-01-23T21:56:03.504Z,20.75
2018-01-23T21:58:31.275Z,20.95
2018-01-23T22:00:59.042Z,21.90
2018-01-23T22:03:26.787Z,20.58
2018-01-23T22:05:54.526Z,21.85
2018-01-23T22:08:22.176Z,21.17
2018-01-23T22:10:49.795Z,20.65
2018-01-23T22:13:17.428Z,22.35
2018-01-23T22:15:46.766Z,19.40
2018-01-23T22:18:22.319Z,18.05
2018-01-23T22:20:55.491Z,17.60
2018-01-23T22:23:25.102Z,18.52
2018-01-23T22:28:44.891Z,18.37
2018-01-23T22:31:12.555Z,18.02
2018-01-23T22:33:40.940Z,19.55
2018-01-23T22:36:08.620Z,18.33
2018-01-23T22:38:36.350Z,18.35
2018-01-23T22:41:07.876Z,17.58
2018-01-23T22:43:35.590Z,16.95
2018-01-23T22:46:04.305Z,16.60
2018-01-23T22:48:32.846Z,17.75
2018-01-23T22:51:01.676Z,16.17
2018-01-23T22:53:29.404Z,17.30
2018-01-23T22:55:57.095Z,16.20
2018-01-23T22:58:25.895Z,16.87
2018-01-23T23:00:56.108Z,17.35
2018-01-23T23:03:36.011Z,15.07
2018-01-23T23:06:05.307Z,16.87
2018-01-23T23:08:33.140Z,16.42
2018-01-23T23:11:00.836Z,16.98
2018-01-23T23:13:28.444Z,17.60
2018-01-23T23:15:56.065Z,16.62
2018-01-23T23:18:24.317Z,16.35
2018-01-23T23:20:52.858Z,16.98
2018-01-23T23:23:20.583Z,17.90
2018-01-23T23:29:07.247Z,17.70
2018-01-23T23:31:47.892Z,17.27
2018-01-23T23:34:15.662Z,17.42
2018-01-23T23:36:43.453Z,16.33
2018-01-23T23:39:12.950Z,14.98
2018-01-23T23:41:44.056Z,17.30
2018-01-23T23:47:20.520Z,15.82
2018-01-23T23:49:49.142Z,14.10
2018-01-23T23:52:16.758Z,14.57
2018-01-23T23:57:28.497Z,16.67
